sensor_id;sensor_type;location;lat;lon;timestamp;temperature;humidity
42095;DHT22;27753;55.724;37.612;2022-08-18T00:00:29;22.70;60.30
42095;DHT22;27753;55.724;37.612;2022-08-18T00:02:55;22.60;60.70
42095;DHT22;27753;55.724;37.612;2022-08-18T00:05:23;22.60;61.30
42095;DHT22;27753;55.724;37.612;2022-08-18T00:07:50;22.60;60.80
42095;DHT22;27753;55.724;37.612;2022-08-18T00:10:15;22.50;60.90
42095;DHT22;27753;55.724;37.612;2022-08-18T00:12:41;22.50;61.20
42095;DHT22;27753;55.724;37.612;2022-08-18T00:15:09;22.40;61.30
42095;DHT22;27753;55.724;37.612;2022-08-18T00:17:35;22.40;61.50
42095;DHT22;27753;55.724;37.612;2022-08-18T00:20:01;22.30;61.60
42095;DHT22;27753;55.724;37.612;2022-08-18T00:22:27;22.20;61.70
42095;DHT22;27753;55.724;37.612;2022-08-18T00:24:53;22.20;61.80
42095;DHT22;27753;55.724;37.612;2022-08-18T00:27:24;22.20;62.10
42095;DHT22;27753;55.724;37.612;2022-08-18T00:29:51;22.10;62.00
42095;DHT22;27753;55.724;37.612;2022-08-18T00:32:18;22.10;61.90
42095;DHT22;27753;55.724;37.612;2022-08-18T00:34:44;22.00;61.80
42095;DHT22;27753;55.724;37.612;2022-08-18T00:37:10;22.00;61.80
42095;DHT22;27753;55.724;37.612;2022-08-18T00:39:35;22.00;62.00
42095;DHT22;27753;55.724;37.612;2022-08-18T00:42:11;21.90;62.00
42095;DHT22;27753;55.724;37.612;2022-08-18T00:44:37;21.90;62.60
42095;DHT22;27753;55.724;37.612;2022-08-18T00:47:02;21.80;62.90
42095;DHT22;27753;55.724;37.612;2022-08-18T00:49:30;21.90;63.10
42095;DHT22;27753;55.724;37.612;2022-08-18T00:51:56;21.80;63.00
42095;DHT22;27753;55.724;37.612;2022-08-18T00:54:26;21.80;63.30
42095;DHT22;27753;55.724;37.612;2022-08-18T00:56:57;21.80;63.40
42095;DHT22;27753;55.724;37.612;2022-08-18T00:59:32;21.80;63.60
42095;DHT22;27753;55.724;37.612;2022-08-18T01:02:00;21.80;63.70
42095;DHT22;27753;55.724;37.612;2022-08-18T01:04:29;21.80;63.50
42095;DHT22;27753;55.724;37.612;2022-08-18T01:06:59;21.70;63.40
42095;DHT22;27753;55.724;37.612;2022-08-18T01:09:26;21.70;63.60
42095;DHT22;27753;55.724;37.612;2022-08-18T01:11:51;21.60;63.50
42095;DHT22;27753;55.724;37.612;2022-08-18T01:14:17;21.60;63.50
42095;DHT22;27753;55.724;37.612;2022-08-18T01:16:44;21.60;63.50
42095;DHT22;27753;55.724;37.612;2022-08-18T01:19:28;21.60;63.50
42095;DHT22;27753;55.724;37.612;2022-08-18T01:22:18;21.50;64.00
42095;DHT22;27753;55.724;37.612;2022-08-18T01:24:46;21.50;64.00
42095;DHT22;27753;55.724;37.612;2022-08-18T01:27:32;21.50;64.60
42095;DHT22;27753;55.724;37.612;2022-08-18T01:30:03;21.50;64.10
42095;DHT22;27753;55.724;37.612;2022-08-18T01:32:29;21.40;64.80
42095;DHT22;27753;55.724;37.612;2022-08-18T01:34:55;21.40;64.90
42095;DHT22;27753;55.724;37.612;2022-08-18T01:37:21;21.50;64.90
42095;DHT22;27753;55.724;37.612;2022-08-18T01:39:47;21.40;65.00
42095;DHT22;27753;55.724;37.612;2022-08-18T01:42:14;21.40;65.30
42095;DHT22;27753;55.724;37.612;2022-08-18T01:44:41;21.40;65.60
42095;DHT22;27753;55.724;37.612;2022-08-18T01:47:08;21.30;65.80
42095;DHT22;27753;55.724;37.612;2022-08-18T01:49:35;21.40;65.80
42095;DHT22;27753;55.724;37.612;2022-08-18T01:52:01;21.30;65.90
42095;DHT22;27753;55.724;37.612;2022-08-18T01:54:28;21.30;66.30
42095;DHT22;27753;55.724;37.612;2022-08-18T01:56:54;21.30;66.20
42095;DHT22;27753;55.724;37.612;2022-08-18T01:59:20;21.20;66.30
42095;DHT22;27753;55.724;37.612;2022-08-18T02:01:45;21.20;66.30
42095;DHT22;27753;55.724;37.612;2022-08-18T02:04:12;21.10;66.50
42095;DHT22;27753;55.724;37.612;2022-08-18T02:06:40;21.10;66.70
42095;DHT22;27753;55.724;37.612;2022-08-18T02:09:05;21.10;67.00
42095;DHT22;27753;55.724;37.612;2022-08-18T02:11:31;21.00;67.10
42095;DHT22;27753;55.724;37.612;2022-08-18T02:13:56;21.00;67.40
42095;DHT22;27753;55.724;37.612;2022-08-18T02:16:22;21.00;67.40
42095;DHT22;27753;55.724;37.612;2022-08-18T02:18:48;21.00;67.30
42095;DHT22;27753;55.724;37.612;2022-08-18T02:21:14;21.00;67.30
42095;DHT22;27753;55.724;37.612;2022-08-18T02:23:42;21.00;67.30
42095;DHT22;27753;55.724;37.612;2022-08-18T02:26:08;21.00;67.40
42095;DHT22;27753;55.724;37.612;2022-08-18T02:28:34;20.90;67.50
42095;DHT22;27753;55.724;37.612;2022-08-18T02:31:04;20.90;67.40
42095;DHT22;27753;55.724;37.612;2022-08-18T02:33:30;20.90;67.70
42095;DHT22;27753;55.724;37.612;2022-08-18T02:35:56;20.90;67.80
42095;DHT22;27753;55.724;37.612;2022-08-18T02:38:21;20.90;67.90
42095;DHT22;27753;55.724;37.612;2022-08-18T02:40:52;20.90;67.90
42095;DHT22;27753;55.724;37.612;2022-08-18T02:43:18;20.90;67.90
42095;DHT22;27753;55.724;37.612;2022-08-18T02:45:44;20.90;68.20
42095;DHT22;27753;55.724;37.612;2022-08-18T02:48:09;20.90;68.00
42095;DHT22;27753;55.724;37.612;2022-08-18T02:50:35;20.90;68.00
42095;DHT22;27753;55.724;37.612;2022-08-18T02:53:13;20.90;68.10
42095;DHT22;27753;55.724;37.612;2022-08-18T02:55:47;20.90;68.30
42095;DHT22;27753;55.724;37.612;2022-08-18T02:58:13;21.00;68.40
42095;DHT22;27753;55.724;37.612;2022-08-18T03:00:39;21.00;68.10
42095;DHT22;27753;55.724;37.612;2022-08-18T03:03:04;21.00;68.40
42095;DHT22;27753;55.724;37.612;2022-08-18T03:05:30;20.90;68.50
42095;DHT22;27753;55.724;37.612;2022-08-18T03:07:56;20.90;68.60
42095;DHT22;27753;55.724;37.612;2022-08-18T03:10:22;20.90;68.60
42095;DHT22;27753;55.724;37.612;2022-08-18T03:12:47;20.90;68.80
42095;DHT22;27753;55.724;37.612;2022-08-18T03:15:13;20.90;68.70
42095;DHT22;27753;55.724;37.612;2022-08-18T03:17:38;21.00;68.70
42095;DHT22;27753;55.724;37.612;2022-08-18T03:20:04;21.00;68.60
42095;DHT22;27753;55.724;37.612;2022-08-18T03:22:30;21.10;68.60
42095;DHT22;27753;55.724;37.612;2022-08-18T03:24:56;21.20;68.50
42095;DHT22;27753;55.724;37.612;2022-08-18T03:27:22;21.30;68.30
42095;DHT22;27753;55.724;37.612;2022-08-18T03:29:47;21.30;68.10
42095;DHT22;27753;55.724;37.612;2022-08-18T03:32:14;21.30;68.10
42095;DHT22;27753;55.724;37.612;2022-08-18T03:34:40;21.40;68.20
42095;DHT22;27753;55.724;37.612;2022-08-18T03:37:07;21.40;68.10
42095;DHT22;27753;55.724;37.612;2022-08-18T03:39:33;21.50;68.00
42095;DHT22;27753;55.724;37.612;2022-08-18T03:41:58;21.50;67.90
42095;DHT22;27753;55.724;37.612;2022-08-18T03:44:24;21.60;68.00
42095;DHT22;27753;55.724;37.612;2022-08-18T03:46:50;21.70;67.80
42095;DHT22;27753;55.724;37.612;2022-08-18T03:49:16;21.70;67.70
42095;DHT22;27753;55.724;37.612;2022-08-18T03:51:43;21.60;67.40
42095;DHT22;27753;55.724;37.612;2022-08-18T03:54:11;21.60;67.50
42095;DHT22;27753;55.724;37.612;2022-08-18T03:56:38;21.60;67.70
42095;DHT22;27753;55.724;37.612;2022-08-18T03:59:06;21.50;67.70
42095;DHT22;27753;55.724;37.612;2022-08-18T04:01:32;21.50;67.70
42095;DHT22;27753;55.724;37.612;2022-08-18T04:04:02;21.60;67.80
42095;DHT22;27753;55.724;37.612;2022-08-18T04:06:32;21.60;67.70
42095;DHT22;27753;55.724;37.612;2022-08-18T04:08:59;21.60;67.60
42095;DHT22;27753;55.724;37.612;2022-08-18T04:11:25;21.60;67.60
42095;DHT22;27753;55.724;37.612;2022-08-18T04:13:55;21.70;67.60
42095;DHT22;27753;55.724;37.612;2022-08-18T04:16:25;21.80;67.30
42095;DHT22;27753;55.724;37.612;2022-08-18T04:18:51;21.90;67.00
42095;DHT22;27753;55.724;37.612;2022-08-18T04:21:17;21.90;66.60
42095;DHT22;27753;55.724;37.612;2022-08-18T04:23:43;21.90;66.70
42095;DHT22;27753;55.724;37.612;2022-08-18T04:26:09;21.90;66.60
42095;DHT22;27753;55.724;37.612;2022-08-18T04:28:37;21.90;66.70
42095;DHT22;27753;55.724;37.612;2022-08-18T04:31:10;21.90;66.80
42095;DHT22;27753;55.724;37.612;2022-08-18T04:33:36;21.90;66.80
42095;DHT22;27753;55.724;37.612;2022-08-18T04:36:09;22.00;66.80
42095;DHT22;27753;55.724;37.612;2022-08-18T04:38:35;22.10;66.60
42095;DHT22;27753;55.724;37.612;2022-08-18T04:41:03;22.30;66.40
42095;DHT22;27753;55.724;37.612;2022-08-18T04:43:29;22.40;66.80
42095;DHT22;27753;55.724;37.612;2022-08-18T04:45:56;22.50;65.60
42095;DHT22;27753;55.724;37.612;2022-08-18T04:48:36;22.80;65.40
42095;DHT22;27753;55.724;37.612;2022-08-18T04:51:13;23.20;64.60
42095;DHT22;27753;55.724;37.612;2022-08-18T04:53:39;23.60;63.70
42095;DHT22;27753;55.724;37.612;2022-08-18T04:56:18;23.90;62.70
42095;DHT22;27753;55.724;37.612;2022-08-18T04:58:54;24.10;62.20
42095;DHT22;27753;55.724;37.612;2022-08-18T05:01:21;24.20;61.90
42095;DHT22;27753;55.724;37.612;2022-08-18T05:03:48;24.20;60.80
42095;DHT22;27753;55.724;37.612;2022-08-18T05:06:13;24.50;60.60
42095;DHT22;27753;55.724;37.612;2022-08-18T05:08:39;24.80;60.20
42095;DHT22;27753;55.724;37.612;2022-08-18T05:11:05;25.20;59.40
42095;DHT22;27753;55.724;37.612;2022-08-18T05:13:31;25.40;58.00
42095;DHT22;27753;55.724;37.612;2022-08-18T05:15:57;25.50;57.50
42095;DHT22;27753;55.724;37.612;2022-08-18T05:18:31;25.90;57.70
42095;DHT22;27753;55.724;37.612;2022-08-18T05:20:57;26.30;56.90
42095;DHT22;27753;55.724;37.612;2022-08-18T05:23:24;26.60;56.10
42095;DHT22;27753;55.724;37.612;2022-08-18T05:25:55;26.80;55.70
42095;DHT22;27753;55.724;37.612;2022-08-18T05:28:21;27.10;55.00
42095;DHT22;27753;55.724;37.612;2022-08-18T05:30:46;27.40;54.40
42095;DHT22;27753;55.724;37.612;2022-08-18T05:33:12;28.00;54.60
42095;DHT22;27753;55.724;37.612;2022-08-18T05:35:42;28.60;53.40
42095;DHT22;27753;55.724;37.612;2022-08-18T05:40:38;29.30;51.90
42095;DHT22;27753;55.724;37.612;2022-08-18T05:43:04;29.70;50.50
42095;DHT22;27753;55.724;37.612;2022-08-18T05:45:32;29.80;50.50
42095;DHT22;27753;55.724;37.612;2022-08-18T05:47:59;30.00;49.90
42095;DHT22;27753;55.724;37.612;2022-08-18T05:50:26;30.30;50.00
42095;DHT22;27753;55.724;37.612;2022-08-18T05:53:05;30.50;49.30
42095;DHT22;27753;55.724;37.612;2022-08-18T05:55:35;30.90;48.80
42095;DHT22;27753;55.724;37.612;2022-08-18T05:58:42;31.20;47.50
42095;DHT22;27753;55.724;37.612;2022-08-18T06:01:10;31.60;47.90
42095;DHT22;27753;55.724;37.612;2022-08-18T06:03:57;32.50;45.80
42095;DHT22;27753;55.724;37.612;2022-08-18T06:06:26;32.50;46.10
42095;DHT22;27753;55.724;37.612;2022-08-18T06:09:09;32.90;45.40
42095;DHT22;27753;55.724;37.612;2022-08-18T06:11:37;33.20;45.50
42095;DHT22;27753;55.724;37.612;2022-08-18T06:14:03;33.50;44.40
42095;DHT22;27753;55.724;37.612;2022-08-18T06:21:48;33.30;43.90
42095;DHT22;27753;55.724;37.612;2022-08-18T06:37:17;33.20;42.80
42095;DHT22;27753;55.724;37.612;2022-08-18T06:39:45;33.40;43.30
42095;DHT22;27753;55.724;37.612;2022-08-18T06:42:11;33.80;42.90
42095;DHT22;27753;55.724;37.612;2022-08-18T06:44:42;34.10;42.10
42095;DHT22;27753;55.724;37.612;2022-08-18T06:47:16;34.00;42.10
42095;DHT22;27753;55.724;37.612;2022-08-18T06:49:49;34.10;42.10
42095;DHT22;27753;55.724;37.612;2022-08-18T06:52:19;34.50;41.60
42095;DHT22;27753;55.724;37.612;2022-08-18T06:54:45;34.60;41.60
42095;DHT22;27753;55.724;37.612;2022-08-18T06:57:28;34.30;40.70
42095;DHT22;27753;55.724;37.612;2022-08-18T06:59:55;34.10;41.20
42095;DHT22;27753;55.724;37.612;2022-08-18T07:02:23;34.00;41.10
42095;DHT22;27753;55.724;37.612;2022-08-18T07:05:00;34.00;41.00
42095;DHT22;27753;55.724;37.612;2022-08-18T07:09:55;34.50;40.80
42095;DHT22;27753;55.724;37.612;2022-08-18T07:14:49;34.90;40.40
42095;DHT22;27753;55.724;37.612;2022-08-18T07:20:19;35.40;38.30
42095;DHT22;27753;55.724;37.612;2022-08-18T07:22:59;35.60;38.70
42095;DHT22;27753;55.724;37.612;2022-08-18T07:25:29;35.80;38.60
42095;DHT22;27753;55.724;37.612;2022-08-18T07:27:56;36.10;37.80
42095;DHT22;27753;55.724;37.612;2022-08-18T07:30:36;36.60;37.30
42095;DHT22;27753;55.724;37.612;2022-08-18T07:35:54;36.40;36.70
42095;DHT22;27753;55.724;37.612;2022-08-18T07:38:25;36.90;37.40
42095;DHT22;27753;55.724;37.612;2022-08-18T07:40:58;38.70;36.30
42095;DHT22;27753;55.724;37.612;2022-08-18T07:55:39;39.00;34.20
42095;DHT22;27753;55.724;37.612;2022-08-18T08:30:10;41.90;31.40
42095;DHT22;27753;55.724;37.612;2022-08-18T08:32:43;42.80;31.70
42095;DHT22;27753;55.724;37.612;2022-08-18T08:35:10;43.70;31.40
42095;DHT22;27753;55.724;37.612;2022-08-18T08:52:25;43.70;31.70
42095;DHT22;27753;55.724;37.612;2022-08-18T08:55:05;46.40;29.60
42095;DHT22;27753;55.724;37.612;2022-08-18T08:57:36;46.20;29.20
42095;DHT22;27753;55.724;37.612;2022-08-18T09:00:06;45.20;28.50
42095;DHT22;27753;55.724;37.612;2022-08-18T09:02:42;44.50;29.30
42095;DHT22;27753;55.724;37.612;2022-08-18T09:05:10;44.20;29.20
42095;DHT22;27753;55.724;37.612;2022-08-18T09:07:41;43.60;29.10
42095;DHT22;27753;55.724;37.612;2022-08-18T09:17:46;42.70;29.40
42095;DHT22;27753;55.724;37.612;2022-08-18T09:23:05;41.20;30.90
42095;DHT22;27753;55.724;37.612;2022-08-18T09:28:15;43.80;30.10
42095;DHT22;27753;55.724;37.612;2022-08-18T09:36:03;43.50;29.00
42095;DHT22;27753;55.724;37.612;2022-08-18T09:38:33;43.00;29.10
42095;DHT22;27753;55.724;37.612;2022-08-18T09:41:20;42.40;29.10
42095;DHT22;27753;55.724;37.612;2022-08-18T09:44:02;40.80;30.00
42095;DHT22;27753;55.724;37.612;2022-08-18T09:50:30;39.60;31.40
42095;DHT22;27753;55.724;37.612;2022-08-18T09:57:22;40.40;31.30
42095;DHT22;27753;55.724;37.612;2022-08-18T10:07:40;39.40;31.50
42095;DHT22;27753;55.724;37.612;2022-08-18T10:12:47;39.40;31.50
42095;DHT22;27753;55.724;37.612;2022-08-18T10:23:00;38.80;31.70
42095;DHT22;27753;55.724;37.612;2022-08-18T10:25:36;39.30;31.60
42095;DHT22;27753;55.724;37.612;2022-08-18T10:28:04;39.80;30.70
42095;DHT22;27753;55.724;37.612;2022-08-18T10:33:02;37.10;31.20
42095;DHT22;27753;55.724;37.612;2022-08-18T10:40:29;33.90;34.40
42095;DHT22;27753;55.724;37.612;2022-08-18T10:45:37;32.70;35.80
42095;DHT22;27753;55.724;37.612;2022-08-18T10:50:58;32.00;36.00
42095;DHT22;27753;55.724;37.612;2022-08-18T10:53:29;31.10;36.80
42095;DHT22;27753;55.724;37.612;2022-08-18T10:56:03;30.80;38.10
42095;DHT22;27753;55.724;37.612;2022-08-18T11:01:20;30.50;37.70
42095;DHT22;27753;55.724;37.612;2022-08-18T11:06:24;30.10;37.90
42095;DHT22;27753;55.724;37.612;2022-08-18T11:08:51;30.10;38.10
42095;DHT22;27753;55.724;37.612;2022-08-18T11:11:23;30.00;38.10
42095;DHT22;27753;55.724;37.612;2022-08-18T11:16:25;29.90;38.60
42095;DHT22;27753;55.724;37.612;2022-08-18T11:28:37;29.70;38.50
42095;DHT22;27753;55.724;37.612;2022-08-18T11:31:02;29.70;38.40
42095;DHT22;27753;55.724;37.612;2022-08-18T11:33:28;29.70;38.40
42095;DHT22;27753;55.724;37.612;2022-08-18T11:35:54;29.70;38.30
42095;DHT22;27753;55.724;37.612;2022-08-18T11:38:26;29.70;37.50
42095;DHT22;27753;55.724;37.612;2022-08-18T11:40:53;29.60;37.50
42095;DHT22;27753;55.724;37.612;2022-08-18T11:43:25;29.60;37.70
42095;DHT22;27753;55.724;37.612;2022-08-18T11:45:54;29.60;37.70
42095;DHT22;27753;55.724;37.612;2022-08-18T11:50:58;29.70;37.80
42095;DHT22;27753;55.724;37.612;2022-08-18T11:56:10;29.60;37.30
42095;DHT22;27753;55.724;37.612;2022-08-18T11:58:36;29.50;37.40
42095;DHT22;27753;55.724;37.612;2022-08-18T12:01:02;29.30;37.60
42095;DHT22;27753;55.724;37.612;2022-08-18T12:03:37;29.40;37.80
42095;DHT22;27753;55.724;37.612;2022-08-18T12:06:09;29.40;37.50
42095;DHT22;27753;55.724;37.612;2022-08-18T12:08:37;29.40;36.80
42095;DHT22;27753;55.724;37.612;2022-08-18T12:11:04;29.40;36.60
42095;DHT22;27753;55.724;37.612;2022-08-18T12:13:31;29.30;36.10
42095;DHT22;27753;55.724;37.612;2022-08-18T12:16:06;29.30;36.10
42095;DHT22;27753;55.724;37.612;2022-08-18T12:18:32;29.20;36.00
42095;DHT22;27753;55.724;37.612;2022-08-18T12:20:58;29.10;35.70
42095;DHT22;27753;55.724;37.612;2022-08-18T12:23:24;29.10;35.60
42095;DHT22;27753;55.724;37.612;2022-08-18T12:25:49;29.10;35.30
42095;DHT22;27753;55.724;37.612;2022-08-18T12:28:15;29.10;35.50
42095;DHT22;27753;55.724;37.612;2022-08-18T12:30:40;29.20;35.60
42095;DHT22;27753;55.724;37.612;2022-08-18T12:33:06;29.20;35.60
42095;DHT22;27753;55.724;37.612;2022-08-18T12:35:32;29.20;35.50
42095;DHT22;27753;55.724;37.612;2022-08-18T12:37:58;29.30;35.40
42095;DHT22;27753;55.724;37.612;2022-08-18T12:40:24;29.20;35.40
42095;DHT22;27753;55.724;37.612;2022-08-18T12:42:50;29.20;35.60
42095;DHT22;27753;55.724;37.612;2022-08-18T12:45:15;29.30;34.60
42095;DHT22;27753;55.724;37.612;2022-08-18T12:47:41;29.30;34.60
42095;DHT22;27753;55.724;37.612;2022-08-18T12:50:07;29.20;34.60
42095;DHT22;27753;55.724;37.612;2022-08-18T12:52:32;29.20;34.60
42095;DHT22;27753;55.724;37.612;2022-08-18T12:54:58;29.20;34.90
42095;DHT22;27753;55.724;37.612;2022-08-18T12:57:25;29.10;34.90
42095;DHT22;27753;55.724;37.612;2022-08-18T12:59:51;29.00;35.10
42095;DHT22;27753;55.724;37.612;2022-08-18T13:02:19;29.00;35.50
42095;DHT22;27753;55.724;37.612;2022-08-18T13:04:45;29.00;35.70
42095;DHT22;27753;55.724;37.612;2022-08-18T13:07:11;29.00;35.70
42095;DHT22;27753;55.724;37.612;2022-08-18T13:09:39;29.00;35.90
42095;DHT22;27753;55.724;37.612;2022-08-18T13:12:05;29.00;36.80
42095;DHT22;27753;55.724;37.612;2022-08-18T13:14:31;29.00;36.10
42095;DHT22;27753;55.724;37.612;2022-08-18T13:16:57;29.10;36.20
42095;DHT22;27753;55.724;37.612;2022-08-18T13:19:22;29.10;35.90
42095;DHT22;27753;55.724;37.612;2022-08-18T13:21:48;29.20;35.80
42095;DHT22;27753;55.724;37.612;2022-08-18T13:24:14;29.20;35.70
42095;DHT22;27753;55.724;37.612;2022-08-18T13:26:41;29.20;35.80
42095;DHT22;27753;55.724;37.612;2022-08-18T13:29:07;29.10;35.50
42095;DHT22;27753;55.724;37.612;2022-08-18T13:31:34;29.10;35.90
42095;DHT22;27753;55.724;37.612;2022-08-18T13:34:01;29.10;36.50
42095;DHT22;27753;55.724;37.612;2022-08-18T15:00:36;29.00;36.60
42095;DHT22;27753;55.724;37.612;2022-08-18T15:03:02;28.90;39.30
42095;DHT22;27753;55.724;37.612;2022-08-18T15:05:31;28.80;39.40
42095;DHT22;27753;55.724;37.612;2022-08-18T15:07:58;28.80;39.40
42095;DHT22;27753;55.724;37.612;2022-08-18T15:10:24;28.70;39.40
42095;DHT22;27753;55.724;37.612;2022-08-18T15:12:49;28.70;39.50
42095;DHT22;27753;55.724;37.612;2022-08-18T15:15:15;28.70;40.40
42095;DHT22;27753;55.724;37.612;2022-08-18T15:17:41;28.70;39.80
42095;DHT22;27753;55.724;37.612;2022-08-18T15:20:08;28.70;39.50
42095;DHT22;27753;55.724;37.612;2022-08-18T15:22:41;28.60;39.30
42095;DHT22;27753;55.724;37.612;2022-08-18T15:25:25;28.60;39.20
42095;DHT22;27753;55.724;37.612;2022-08-18T15:28:15;28.60;39.00
42095;DHT22;27753;55.724;37.612;2022-08-18T15:30:44;28.60;38.90
42095;DHT22;27753;55.724;37.612;2022-08-18T15:33:11;28.50;38.80
42095;DHT22;27753;55.724;37.612;2022-08-18T15:35:40;28.50;38.90
42095;DHT22;27753;55.724;37.612;2022-08-18T15:38:06;28.50;38.60
42095;DHT22;27753;55.724;37.612;2022-08-18T15:40:32;28.50;38.50
42095;DHT22;27753;55.724;37.612;2022-08-18T15:42:58;28.50;38.60
42095;DHT22;27753;55.724;37.612;2022-08-18T15:45:28;28.40;38.40
42095;DHT22;27753;55.724;37.612;2022-08-18T15:47:56;28.40;38.50
42095;DHT22;27753;55.724;37.612;2022-08-18T15:50:22;28.40;38.80
42095;DHT22;27753;55.724;37.612;2022-08-18T15:52:58;28.40;38.80
42095;DHT22;27753;55.724;37.612;2022-08-18T15:55:25;28.30;39.00
42095;DHT22;27753;55.724;37.612;2022-08-18T15:57:52;28.30;39.30
42095;DHT22;27753;55.724;37.612;2022-08-18T16:00:18;28.30;39.50
42095;DHT22;27753;55.724;37.612;2022-08-18T16:02:48;28.30;39.60
42095;DHT22;27753;55.724;37.612;2022-08-18T16:05:15;28.20;39.80
42095;DHT22;27753;55.724;37.612;2022-08-18T16:07:41;28.10;39.80
42095;DHT22;27753;55.724;37.612;2022-08-18T16:10:11;28.10;40.00
42095;DHT22;27753;55.724;37.612;2022-08-18T16:15:03;28.00;40.10
42095;DHT22;27753;55.724;37.612;2022-08-18T16:19:56;27.90;40.50
42095;DHT22;27753;55.724;37.612;2022-08-18T16:22:22;27.80;40.90
42095;DHT22;27753;55.724;37.612;2022-08-18T16:24:48;27.80;40.80
42095;DHT22;27753;55.724;37.612;2022-08-18T16:27:14;27.70;40.80
42095;DHT22;27753;55.724;37.612;2022-08-18T16:29:40;27.60;41.00
42095;DHT22;27753;55.724;37.612;2022-08-18T16:32:06;27.60;41.30
42095;DHT22;27753;55.724;37.612;2022-08-18T16:34:32;27.60;41.70
42095;DHT22;27753;55.724;37.612;2022-08-18T16:36:59;27.60;41.70
42095;DHT22;27753;55.724;37.612;2022-08-18T16:39:24;27.60;41.90
42095;DHT22;27753;55.724;37.612;2022-08-18T16:41:50;27.60;41.90
42095;DHT22;27753;55.724;37.612;2022-08-18T16:44:16;27.60;42.10
42095;DHT22;27753;55.724;37.612;2022-08-18T16:46:41;27.50;42.10
42095;DHT22;27753;55.724;37.612;2022-08-18T16:49:08;27.40;42.20
42095;DHT22;27753;55.724;37.612;2022-08-18T17:36:02;27.30;42.20
42095;DHT22;27753;55.724;37.612;2022-08-18T17:38:30;27.00;46.10
42095;DHT22;27753;55.724;37.612;2022-08-18T17:41:01;26.90;46.00
42095;DHT22;27753;55.724;37.612;2022-08-18T17:43:33;26.80;46.40
42095;DHT22;27753;55.724;37.612;2022-08-18T17:46:03;26.80;46.30
42095;DHT22;27753;55.724;37.612;2022-08-18T17:48:31;26.70;46.50
42095;DHT22;27753;55.724;37.612;2022-08-18T17:51:00;26.60;46.70
42095;DHT22;27753;55.724;37.612;2022-08-18T17:53:53;26.50;46.90
42095;DHT22;27753;55.724;37.612;2022-08-18T17:56:19;26.40;46.70
42095;DHT22;27753;55.724;37.612;2022-08-18T18:01:11;26.30;46.90
42095;DHT22;27753;55.724;37.612;2022-08-18T18:03:38;26.30;47.00
42095;DHT22;27753;55.724;37.612;2022-08-18T18:06:08;26.20;47.00
42095;DHT22;27753;55.724;37.612;2022-08-18T18:11:15;26.00;47.10
42095;DHT22;27753;55.724;37.612;2022-08-18T18:13:41;25.90;47.30
42095;DHT22;27753;55.724;37.612;2022-08-18T18:19:05;25.80;47.60
42095;DHT22;27753;55.724;37.612;2022-08-18T18:21:32;25.70;47.60
42095;DHT22;27753;55.724;37.612;2022-08-18T18:26:43;25.60;48.00
42095;DHT22;27753;55.724;37.612;2022-08-18T18:31:35;25.50;48.40
42095;DHT22;27753;55.724;37.612;2022-08-18T18:34:03;25.50;48.60
42095;DHT22;27753;55.724;37.612;2022-08-18T18:36:35;25.40;48.50
42095;DHT22;27753;55.724;37.612;2022-08-18T18:39:14;25.40;48.60
42095;DHT22;27753;55.724;37.612;2022-08-18T18:41:40;25.30;49.00
42095;DHT22;27753;55.724;37.612;2022-08-18T18:44:07;25.30;49.20
42095;DHT22;27753;55.724;37.612;2022-08-18T18:46:35;25.30;49.10
42095;DHT22;27753;55.724;37.612;2022-08-18T18:56:37;25.10;49.20
42095;DHT22;27753;55.724;37.612;2022-08-18T19:01:33;25.00;49.40
42095;DHT22;27753;55.724;37.612;2022-08-18T19:04:05;25.00;49.60
42095;DHT22;27753;55.724;37.612;2022-08-18T19:06:51;25.00;49.70
42095;DHT22;27753;55.724;37.612;2022-08-18T19:09:20;25.00;49.70
42095;DHT22;27753;55.724;37.612;2022-08-18T19:14:51;24.90;50.50
42095;DHT22;27753;55.724;37.612;2022-08-18T19:17:37;24.90;50.30
42095;DHT22;27753;55.724;37.612;2022-08-18T19:20:06;24.90;50.10
42095;DHT22;27753;55.724;37.612;2022-08-18T19:30:19;24.70;50.80
42095;DHT22;27753;55.724;37.612;2022-08-18T19:32:55;24.80;51.20
42095;DHT22;27753;55.724;37.612;2022-08-18T19:38:13;24.80;51.10
42095;DHT22;27753;55.724;37.612;2022-08-18T19:40:53;24.80;51.60
42095;DHT22;27753;55.724;37.612;2022-08-18T19:48:53;24.80;51.90
42095;DHT22;27753;55.724;37.612;2022-08-18T19:51:56;24.80;52.20
42095;DHT22;27753;55.724;37.612;2022-08-18T19:59:16;24.60;52.70
42095;DHT22;27753;55.724;37.612;2022-08-18T20:06:52;24.60;53.30
42095;DHT22;27753;55.724;37.612;2022-08-18T20:14:17;24.50;53.40
42095;DHT22;27753;55.724;37.612;2022-08-18T21:37:15;24.50;53.60
42095;DHT22;27753;55.724;37.612;2022-08-18T21:39:46;23.40;56.20
42095;DHT22;27753;55.724;37.612;2022-08-18T21:42:16;23.20;56.00
42095;DHT22;27753;55.724;37.612;2022-08-18T21:44:44;23.20;56.00
42095;DHT22;27753;55.724;37.612;2022-08-18T21:47:18;23.10;56.10
42095;DHT22;27753;55.724;37.612;2022-08-18T21:49:57;23.10;56.20
42095;DHT22;27753;55.724;37.612;2022-08-18T21:52:23;23.10;56.20
42095;DHT22;27753;55.724;37.612;2022-08-18T21:54:49;23.00;56.30
42095;DHT22;27753;55.724;37.612;2022-08-18T21:57:24;23.00;56.90
42095;DHT22;27753;55.724;37.612;2022-08-18T22:00:09;22.90;56.70
42095;DHT22;27753;55.724;37.612;2022-08-18T22:02:34;22.90;56.90
42095;DHT22;27753;55.724;37.612;2022-08-18T22:05:01;23.00;57.80
42095;DHT22;27753;55.724;37.612;2022-08-18T22:07:27;22.90;57.70
42095;DHT22;27753;55.724;37.612;2022-08-18T22:09:57;22.90;58.00
42095;DHT22;27753;55.724;37.612;2022-08-18T22:12:52;22.90;57.80
42095;DHT22;27753;55.724;37.612;2022-08-18T22:15:44;22.90;57.60
42095;DHT22;27753;55.724;37.612;2022-08-18T22:20:46;22.90;57.80
42095;DHT22;27753;55.724;37.612;2022-08-18T22:26:16;23.00;57.80
42095;DHT22;27753;55.724;37.612;2022-08-18T22:31:28;23.00;58.00
42095;DHT22;27753;55.724;37.612;2022-08-18T22:33:54;23.00;57.90
42095;DHT22;27753;55.724;37.612;2022-08-18T22:36:24;23.00;57.70
42095;DHT22;27753;55.724;37.612;2022-08-18T22:38:50;23.00;57.60
42095;DHT22;27753;55.724;37.612;2022-08-18T22:41:16;23.00;57.50
42095;DHT22;27753;55.724;37.612;2022-08-18T22:43:42;23.10;57.40
42095;DHT22;27753;55.724;37.612;2022-08-18T22:46:08;23.10;57.20
42095;DHT22;27753;55.724;37.612;2022-08-18T22:48:33;23.20;56.90
42095;DHT22;27753;55.724;37.612;2022-08-18T22:50:59;23.20;57.30
42095;DHT22;27753;55.724;37.612;2022-08-18T22:53:25;23.20;56.50
42095;DHT22;27753;55.724;37.612;2022-08-18T22:55:52;23.30;56.30